sensor_id;sensor_type;location;lat;lon;timestamp;pressure;altitude;pressure_sealevel;temperature;humidity
33280;BME280;20403;43.114;12.434;2023-03-13T00:00:15;99350.34;;;7.12;100.00
33280;BME280;20403;43.114;12.434;2023-03-13T00:02:41;99351.75;;;7.15;100.00
33280;BME280;20403;43.114;12.434;2023-03-13T00:05:10;99350.75;;;7.09;100.00
33280;BME280;20403;43.114;12.434;2023-03-13T00:07:35;99343.50;;;6.98;100.00
33280;BME280;20403;43.114;12.434;2023-03-13T00:10:01;99346.06;;;6.91;100.00
33280;BME280;20403;43.114;12.434;2023-03-13T00:12:26;99343.69;;;6.97;100.00
33280;BME280;20403;43.114;12.434;2023-03-13T00:14:51;99348.44;;;6.86;100.00
33280;BME280;20403;43.114;12.434;2023-03-13T00:17:17;99338.59;;;6.75;100.00
33280;BME280;20403;43.114;12.434;2023-03-13T00:19:42;99344.75;;;6.74;100.00
33280;BME280;20403;43.114;12.434;2023-03-13T00:22:08;99339.56;;;6.74;100.00
33280;BME280;20403;43.114;12.434;2023-03-13T00:24:33;99333.81;;;6.79;100.00
33280;BME280;20403;43.114;12.434;2023-03-13T00:26:58;99337.34;;;6.71;100.00
33280;BME280;20403;43.114;12.434;2023-03-13T00:29:28;99335.75;;;6.70;100.00
33280;BME280;20403;43.114;12.434;2023-03-13T00:31:54;99338.72;;;6.67;100.00
33280;BME280;20403;43.114;12.434;2023-03-13T00:34:19;99341.72;;;6.64;100.00
33280;BME280;20403;43.114;12.434;2023-03-13T00:36:45;99348.03;;;6.55;100.00
33280;BME280;20403;43.114;12.434;2023-03-13T00:39:10;99349.81;;;6.54;100.00
33280;BME280;20403;43.114;12.434;2023-03-13T00:41:36;99355.78;;;6.55;100.00
33280;BME280;20403;43.114;12.434;2023-03-13T00:44:02;99354.75;;;6.49;100.00
33280;BME280;20403;43.114;12.434;2023-03-13T00:46:29;99359.13;;;6.48;100.00
33280;BME280;20403;43.114;12.434;2023-03-13T00:48:55;99358.94;;;6.50;100.00
33280;BME280;20403;43.114;12.434;2023-03-13T00:51:22;99361.09;;;6.46;100.00
33280;BME280;20403;43.114;12.434;2023-03-13T00:53:51;99361.25;;;6.38;100.00
33280;BME280;20403;43.114;12.434;2023-03-13T00:56:18;99358.47;;;6.40;100.00
33280;BME280;20403;43.114;12.434;2023-03-13T00:58:45;99358.47;;;6.40;100.00
33280;BME280;20403;43.114;12.434;2023-03-13T01:01:16;99356.06;;;6.38;100.00
33280;BME280;20403;43.114;12.434;2023-03-13T01:03:44;99362.22;;;6.37;100.00
33280;BME280;20403;43.114;12.434;2023-03-13T01:06:12;99359.22;;;6.34;100.00
33280;BME280;20403;43.114;12.434;2023-03-13T01:08:38;99361.38;;;6.30;100.00
33280;BME280;20403;43.114;12.434;2023-03-13T01:11:06;99360.75;;;6.28;100.00
33280;BME280;20403;43.114;12.434;2023-03-13T01:13:33;99368.19;;;6.31;100.00
33280;BME280;20403;43.114;12.434;2023-03-13T01:16:08;99371.50;;;6.53;100.00
33280;BME280;20403;43.114;12.434;2023-03-13T01:18:34;99366.94;;;6.55;100.00
33280;BME280;20403;43.114;12.434;2023-03-13T01:21:01;99368.69;;;6.48;100.00
33280;BME280;20403;43.114;12.434;2023-03-13T01:23:26;99366.28;;;6.46;100.00
33280;BME280;20403;43.114;12.434;2023-03-13T01:25:53;99373.03;;;6.41;100.00
33280;BME280;20403;43.114;12.434;2023-03-13T01:28:19;99379.50;;;6.30;100.00
33280;BME280;20403;43.114;12.434;2023-03-13T01:30:45;99373.47;;;6.23;100.00
33280;BME280;20403;43.114;12.434;2023-03-13T01:33:10;99383.44;;;6.26;100.00
33280;BME280;20403;43.114;12.434;2023-03-13T01:35:39;99393.16;;;6.17;100.00
33280;BME280;20403;43.114;12.434;2023-03-13T01:38:08;99387.16;;;6.17;100.00
33280;BME280;20403;43.114;12.434;2023-03-13T01:40:45;99389.50;;;6.12;100.00
33280;BME280;20403;43.114;12.434;2023-03-13T01:43:23;99382.97;;;6.16;100.00
33280;BME280;20403;43.114;12.434;2023-03-13T01:51:44;99384.56;;;5.95;100.00
33280;BME280;20403;43.114;12.434;2023-03-13T01:54:17;99386.59;;;6.00;100.00
33280;BME280;20403;43.114;12.434;2023-03-13T01:59:16;99382.97;;;5.94;100.00
33280;BME280;20403;43.114;12.434;2023-03-13T02:01:44;99384.47;;;6.03;100.00
33280;BME280;20403;43.114;12.434;2023-03-13T02:04:12;99385.25;;;6.04;100.00
33280;BME280;20403;43.114;12.434;2023-03-13T02:06:40;99381.81;;;5.97;100.00
33280;BME280;20403;43.114;12.434;2023-03-13T02:09:11;99386.72;;;5.92;100.00
33280;BME280;20403;43.114;12.434;2023-03-13T02:11:43;99385.63;;;6.01;100.00
33280;BME280;20403;43.114;12.434;2023-03-13T02:14:10;99393.19;;;6.02;100.00
33280;BME280;20403;43.114;12.434;2023-03-13T02:16:36;99397.13;;;5.98;100.00
33280;BME280;20403;43.114;12.434;2023-03-13T02:19:09;99399.78;;;6.05;100.00
33280;BME280;20403;43.114;12.434;2023-03-13T02:21:59;99400.44;;;5.92;100.00
33280;BME280;20403;43.114;12.434;2023-03-13T02:27:13;99404.47;;;5.80;100.00
33280;BME280;20403;43.114;12.434;2023-03-13T02:29:39;99412.53;;;5.85;100.00
33280;BME280;20403;43.114;12.434;2023-03-13T02:32:05;99409.09;;;5.84;100.00
33280;BME280;20403;43.114;12.434;2023-03-13T02:34:32;99416.81;;;5.78;100.00
33280;BME280;20403;43.114;12.434;2023-03-13T02:37:01;99415.31;;;5.68;100.00
33280;BME280;20403;43.114;12.434;2023-03-13T02:39:30;99415.66;;;5.65;100.00
33280;BME280;20403;43.114;12.434;2023-03-13T02:41:58;99420.22;;;5.63;100.00
33280;BME280;20403;43.114;12.434;2023-03-13T02:44:26;99411.66;;;5.63;100.00
33280;BME280;20403;43.114;12.434;2023-03-13T02:46:51;99418.19;;;5.59;100.00
33280;BME280;20403;43.114;12.434;2023-03-13T02:49:26;99406.41;;;5.56;100.00
33280;BME280;20403;43.114;12.434;2023-03-13T02:51:53;99398.84;;;5.55;100.00
33280;BME280;20403;43.114;12.434;2023-03-13T02:54:30;99419.09;;;5.51;100.00
33280;BME280;20403;43.114;12.434;2023-03-13T02:56:59;99416.13;;;5.54;100.00
33280;BME280;20403;43.114;12.434;2023-03-13T02:59:26;99414.97;;;5.57;100.00
33280;BME280;20403;43.114;12.434;2023-03-13T03:01:52;99418.38;;;5.57;100.00
33280;BME280;20403;43.114;12.434;2023-03-13T03:04:19;99419.53;;;5.55;100.00
33280;BME280;20403;43.114;12.434;2023-03-13T03:06:45;99423.19;;;5.60;100.00
33280;BME280;20403;43.114;12.434;2023-03-13T03:09:11;99428.97;;;5.62;100.00
33280;BME280;20403;43.114;12.434;2023-03-13T03:11:36;99414.78;;;5.58;100.00
33280;BME280;20403;43.114;12.434;2023-03-13T03:14:03;99420.16;;;5.42;100.00
33280;BME280;20403;43.114;12.434;2023-03-13T03:16:28;99422.03;;;5.33;100.00
33280;BME280;20403;43.114;12.434;2023-03-13T03:18:54;99428.56;;;5.44;100.00
33280;BME280;20403;43.114;12.434;2023-03-13T03:21:20;99422.13;;;5.40;100.00
33280;BME280;20403;43.114;12.434;2023-03-13T03:23:45;99424.00;;;5.31;100.00
33280;BME280;20403;43.114;12.434;2023-03-13T03:26:11;99434.16;;;5.47;100.00
33280;BME280;20403;43.114;12.434;2023-03-13T03:28:36;99437.91;;;5.45;100.00
33280;BME280;20403;43.114;12.434;2023-03-13T03:31:22;99439.31;;;5.47;100.00
33280;BME280;20403;43.114;12.434;2023-03-13T03:33:47;99432.03;;;5.51;100.00
33280;BME280;20403;43.114;12.434;2023-03-13T03:36:15;99444.69;;;5.46;100.00
33280;BME280;20403;43.114;12.434;2023-03-13T03:38:42;99445.03;;;5.43;100.00
33280;BME280;20403;43.114;12.434;2023-03-13T03:41:09;99442.63;;;5.26;100.00
33280;BME280;20403;43.114;12.434;2023-03-13T03:43:34;99447.09;;;5.33;100.00
33280;BME280;20403;43.114;12.434;2023-03-13T03:46:00;99453.34;;;5.53;100.00
33280;BME280;20403;43.114;12.434;2023-03-13T03:48:26;99459.13;;;5.55;100.00
33280;BME280;20403;43.114;12.434;2023-03-13T03:50:51;99449.25;;;5.44;100.00
33280;BME280;20403;43.114;12.434;2023-03-13T03:53:17;99452.25;;;5.47;100.00
33280;BME280;20403;43.114;12.434;2023-03-13T03:55:43;99453.16;;;5.40;100.00
33280;BME280;20403;43.114;12.434;2023-03-13T03:58:08;99460.28;;;5.38;100.00
33280;BME280;20403;43.114;12.434;2023-03-13T04:00:34;99464.31;;;5.40;100.00
33280;BME280;20403;43.114;12.434;2023-03-13T04:02:59;99461.63;;;5.48;100.00
33280;BME280;20403;43.114;12.434;2023-03-13T04:05:25;99464.13;;;5.57;100.00
33280;BME280;20403;43.114;12.434;2023-03-13T04:07:50;99461.97;;;5.60;100.00
33280;BME280;20403;43.114;12.434;2023-03-13T04:10:16;99460.19;;;5.61;100.00
33280;BME280;20403;43.114;12.434;2023-03-13T04:12:41;99456.88;;;5.52;100.00
33280;BME280;20403;43.114;12.434;2023-03-13T04:15:07;99471.19;;;5.48;100.00
33280;BME280;20403;43.114;12.434;2023-03-13T04:17:33;99468.06;;;5.38;100.00
33280;BME280;20403;43.114;12.434;2023-03-13T04:19:58;99469.75;;;5.31;100.00
33280;BME280;20403;43.114;12.434;2023-03-13T04:22:24;99463.63;;;5.32;100.00
33280;BME280;20403;43.114;12.434;2023-03-13T04:24:49;99466.63;;;5.35;100.00
33280;BME280;20403;43.114;12.434;2023-03-13T04:27:15;99466.19;;;5.32;100.00
33280;BME280;20403;43.114;12.434;2023-03-13T04:29:41;99464.16;;;5.27;100.00
33280;BME280;20403;43.114;12.434;2023-03-13T04:32:06;99458.78;;;5.29;100.00
33280;BME280;20403;43.114;12.434;2023-03-13T04:34:32;99465.75;;;5.28;100.00
33280;BME280;20403;43.114;12.434;2023-03-13T04:36:57;99466.09;;;5.25;100.00
33280;BME280;20403;43.114;12.434;2023-03-13T04:39:23;99477.13;;;5.19;100.00
33280;BME280;20403;43.114;12.434;2023-03-13T04:41:53;99468.13;;;5.15;100.00
33280;BME280;20403;43.114;12.434;2023-03-13T04:44:20;99473.56;;;5.05;100.00
33280;BME280;20403;43.114;12.434;2023-03-13T04:46:45;99476.50;;;5.02;100.00
33280;BME280;20403;43.114;12.434;2023-03-13T04:49:11;99471.66;;;4.99;100.00
33280;BME280;20403;43.114;12.434;2023-03-13T04:51:39;99465.16;;;4.88;100.00
33280;BME280;20403;43.114;12.434;2023-03-13T04:54:04;99464.69;;;4.84;100.00
33280;BME280;20403;43.114;12.434;2023-03-13T04:56:30;99464.38;;;4.88;100.00
33280;BME280;20403;43.114;12.434;2023-03-13T04:58:55;99466.50;;;4.99;100.00
33280;BME280;20403;43.114;12.434;2023-03-13T05:01:20;99472.50;;;4.99;100.00
33280;BME280;20403;43.114;12.434;2023-03-13T05:03:46;99472.81;;;4.96;100.00
33280;BME280;20403;43.114;12.434;2023-03-13T05:06:11;99464.81;;;4.91;100.00
33280;BME280;20403;43.114;12.434;2023-03-13T05:08:37;99476.81;;;4.84;100.00
33280;BME280;20403;43.114;12.434;2023-03-13T05:11:03;99467.91;;;4.87;100.00
33280;BME280;20403;43.114;12.434;2023-03-13T05:13:29;99476.81;;;4.84;100.00
33280;BME280;20403;43.114;12.434;2023-03-13T05:15:54;99470.91;;;4.75;100.00
33280;BME280;20403;43.114;12.434;2023-03-13T05:18:20;99479.66;;;4.51;100.00
33280;BME280;20403;43.114;12.434;2023-03-13T05:20:45;99479.31;;;4.54;100.00
33280;BME280;20403;43.114;12.434;2023-03-13T05:23:10;99480.22;;;4.61;100.00
33280;BME280;20403;43.114;12.434;2023-03-13T05:25:36;99473.78;;;4.57;100.00
33280;BME280;20403;43.114;12.434;2023-03-13T05:28:01;99468.03;;;4.55;100.00
33280;BME280;20403;43.114;12.434;2023-03-13T05:30:27;99472.53;;;4.76;100.00
33280;BME280;20403;43.114;12.434;2023-03-13T05:32:52;99474.69;;;4.88;100.00
33280;BME280;20403;43.114;12.434;2023-03-13T05:35:18;99474.19;;;5.07;100.00
33280;BME280;20403;43.114;12.434;2023-03-13T05:37:43;99472.94;;;5.03;100.00
33280;BME280;20403;43.114;12.434;2023-03-13T05:40:10;99480.00;;;5.09;100.00
33280;BME280;20403;43.114;12.434;2023-03-13T05:42:36;99484.38;;;5.09;100.00
33280;BME280;20403;43.114;12.434;2023-03-13T05:45:02;99483.53;;;5.08;100.00
33280;BME280;20403;43.114;12.434;2023-03-13T05:47:27;99481.59;;;5.10;100.00
33280;BME280;20403;43.114;12.434;2023-03-13T05:49:53;99491.75;;;5.12;100.00
33280;BME280;20403;43.114;12.434;2023-03-13T05:52:18;99491.22;;;5.16;100.00
33280;BME280;20403;43.114;12.434;2023-03-13T05:54:43;99489.38;;;5.40;100.00
33280;BME280;20403;43.114;12.434;2023-03-13T05:57:09;99489.53;;;5.38;100.00
33280;BME280;20403;43.114;12.434;2023-03-13T05:59:34;99483.22;;;5.56;100.00
33280;BME280;20403;43.114;12.434;2023-03-13T06:02:00;99491.44;;;5.59;100.00
33280;BME280;20403;43.114;12.434;2023-03-13T06:04:25;99487.44;;;5.93;100.00
33280;BME280;20403;43.114;12.434;2023-03-13T06:06:51;99495.88;;;5.95;100.00
33280;BME280;20403;43.114;12.434;2023-03-13T06:09:16;99497.91;;;6.00;100.00
33280;BME280;20403;43.114;12.434;2023-03-13T06:11:41;99502.91;;;6.01;100.00
33280;BME280;20403;43.114;12.434;2023-03-13T06:14:07;99498.53;;;6.02;100.00
33280;BME280;20403;43.114;12.434;2023-03-13T06:16:33;99495.78;;;6.25;100.00
33280;BME280;20403;43.114;12.434;2023-03-13T06:18:58;99497.28;;;6.56;100.00
33280;BME280;20403;43.114;12.434;2023-03-13T06:21:23;99495.00;;;6.67;100.00
33280;BME280;20403;43.114;12.434;2023-03-13T06:23:49;99492.22;;;6.69;100.00
33280;BME280;20403;43.114;12.434;2023-03-13T06:26:14;99490.31;;;6.78;100.00
33280;BME280;20403;43.114;12.434;2023-03-13T06:28:40;99495.34;;;6.86;100.00
33280;BME280;20403;43.114;12.434;2023-03-13T06:31:06;99495.03;;;6.96;100.00
33280;BME280;20403;43.114;12.434;2023-03-13T06:33:32;99491.34;;;7.11;100.00
33280;BME280;20403;43.114;12.434;2023-03-13T06:35:59;99492.41;;;7.17;100.00
33280;BME280;20403;43.114;12.434;2023-03-13T06:38:26;99491.25;;;7.26;100.00
33280;BME280;20403;43.114;12.434;2023-03-13T06:40:52;99494.34;;;7.43;100.00
33280;BME280;20403;43.114;12.434;2023-03-13T06:43:18;99497.34;;;7.40;100.00
33280;BME280;20403;43.114;12.434;2023-03-13T06:45:43;99483.50;;;7.68;100.00
33280;BME280;20403;43.114;12.434;2023-03-13T06:48:09;99488.75;;;7.81;100.00
33280;BME280;20403;43.114;12.434;2023-03-13T06:50:37;99496.44;;;8.09;100.00
33280;BME280;20403;43.114;12.434;2023-03-13T06:53:03;99499.91;;;8.30;100.00
33280;BME280;20403;43.114;12.434;2023-03-13T06:55:28;99501.75;;;8.56;100.00
33280;BME280;20403;43.114;12.434;2023-03-13T06:57:54;99522.38;;;8.97;100.00
33280;BME280;20403;43.114;12.434;2023-03-13T07:00:19;99528.56;;;9.16;100.00
33280;BME280;20403;43.114;12.434;2023-03-13T07:02:45;99532.38;;;9.40;100.00
33280;BME280;20403;43.114;12.434;2023-03-13T07:05:11;99531.34;;;9.41;100.00
33280;BME280;20403;43.114;12.434;2023-03-13T07:07:39;99533.91;;;9.61;100.00
33280;BME280;20403;43.114;12.434;2023-03-13T07:10:05;99538.09;;;9.69;100.00
33280;BME280;20403;43.114;12.434;2023-03-13T07:12:30;99532.41;;;9.92;100.00
33280;BME280;20403;43.114;12.434;2023-03-13T07:14:56;99536.06;;;10.23;100.00
33280;BME280;20403;43.114;12.434;2023-03-13T07:17:21;99535.84;;;10.38;100.00
33280;BME280;20403;43.114;12.434;2023-03-13T07:19:46;99537.97;;;10.54;100.00
33280;BME280;20403;43.114;12.434;2023-03-13T07:22:12;99535.59;;;10.78;100.00
33280;BME280;20403;43.114;12.434;2023-03-13T07:24:37;99540.19;;;11.07;100.00
33280;BME280;20403;43.114;12.434;2023-03-13T07:27:03;99545.50;;;11.19;100.00
33280;BME280;20403;43.114;12.434;2023-03-13T07:29:28;99547.03;;;11.27;100.00
33280;BME280;20403;43.114;12.434;2023-03-13T07:31:53;99550.66;;;11.26;100.00
33280;BME280;20403;43.114;12.434;2023-03-13T07:34:24;99550.91;;;11.43;100.00
33280;BME280;20403;43.114;12.434;2023-03-13T07:36:50;99557.09;;;11.48;100.00
33280;BME280;20403;43.114;12.434;2023-03-13T07:39:15;99545.91;;;11.60;100.00
33280;BME280;20403;43.114;12.434;2023-03-13T07:41:40;99544.00;;;11.85;100.00
33280;BME280;20403;43.114;12.434;2023-03-13T07:44:07;99545.00;;;11.91;100.00
33280;BME280;20403;43.114;12.434;2023-03-13T07:46:32;99545.97;;;12.08;100.00
33280;BME280;20403;43.114;12.434;2023-03-13T07:48:57;99550.44;;;12.38;100.00
33280;BME280;20403;43.114;12.434;2023-03-13T07:51:24;99544.91;;;12.46;100.00
33280;BME280;20403;43.114;12.434;2023-03-13T07:53:50;99543.72;;;12.84;100.00
33280;BME280;20403;43.114;12.434;2023-03-13T07:56:21;99543.84;;;12.77;100.00
33280;BME280;20403;43.114;12.434;2023-03-13T07:58:47;99541.22;;;12.77;100.00
33280;BME280;20403;43.114;12.434;2023-03-13T08:01:18;99534.88;;;12.97;100.00
33280;BME280;20403;43.114;12.434;2023-03-13T08:03:45;99543.75;;;12.96;100.00
33280;BME280;20403;43.114;12.434;2023-03-13T08:06:14;99547.09;;;13.15;100.00
33280;BME280;20403;43.114;12.434;2023-03-13T08:08:44;99540.50;;;13.48;100.00
33280;BME280;20403;43.114;12.434;2023-03-13T08:11:11;99541.50;;;13.58;100.00
33280;BME280;20403;43.114;12.434;2023-03-13T08:13:38;99537.81;;;13.83;100.00
33280;BME280;20403;43.114;12.434;2023-03-13T08:16:08;99536.34;;;14.16;100.00
33280;BME280;20403;43.114;12.434;2023-03-13T08:18:35;99524.69;;;14.23;100.00
33280;BME280;20403;43.114;12.434;2023-03-13T08:21:10;99522.88;;;14.41;100.00
33280;BME280;20403;43.114;12.434;2023-03-13T08:23:36;99530.75;;;14.41;100.00
33280;BME280;20403;43.114;12.434;2023-03-13T08:26:10;99530.81;;;14.58;100.00
33280;BME280;20403;43.114;12.434;2023-03-13T08:28:37;99527.81;;;14.83;100.00
33280;BME280;20403;43.114;12.434;2023-03-13T08:31:15;99529.69;;;14.54;100.00
33280;BME280;20403;43.114;12.434;2023-03-13T08:33:41;99527.66;;;14.73;100.00
33280;BME280;20403;43.114;12.434;2023-03-13T08:36:19;99527.97;;;14.59;100.00
33280;BME280;20403;43.114;12.434;2023-03-13T08:38:46;99535.22;;;14.86;100.00
33280;BME280;20403;43.114;12.434;2023-03-13T08:41:33;99534.63;;;15.34;100.00
33280;BME280;20403;43.114;12.434;2023-03-13T08:44:02;99531.66;;;15.31;100.00
33280;BME280;20403;43.114;12.434;2023-03-13T08:46:29;99526.66;;;15.29;100.00
33280;BME280;20403;43.114;12.434;2023-03-13T08:48:55;99527.53;;;15.57;100.00
33280;BME280;20403;43.114;12.434;2023-03-13T08:51:23;99529.78;;;16.09;100.00
33280;BME280;20403;43.114;12.434;2023-03-13T08:53:49;99525.50;;;16.57;100.00
33280;BME280;20403;43.114;12.434;2023-03-13T08:56:19;99525.38;;;17.07;100.00
33280;BME280;20403;43.114;12.434;2023-03-13T08:58:49;99520.56;;;17.41;100.00
33280;BME280;20403;43.114;12.434;2023-03-13T09:01:15;99522.69;;;17.01;85.91
33280;BME280;20403;43.114;12.434;2023-03-13T09:03:41;99518.81;;;17.14;89.69
33280;BME280;20403;43.114;12.434;2023-03-13T09:06:07;99516.72;;;17.64;91.50
33280;BME280;20403;43.114;12.434;2023-03-13T09:08:33;99509.50;;;18.12;83.45
33280;BME280;20403;43.114;12.434;2023-03-13T09:11:01;99505.31;;;18.26;75.47
33280;BME280;20403;43.114;12.434;2023-03-13T09:13:28;99503.47;;;18.47;74.58
33280;BME280;20403;43.114;12.434;2023-03-13T09:16:02;99506.13;;;18.73;72.45
33280;BME280;20403;43.114;12.434;2023-03-13T09:18:28;99507.97;;;18.67;72.65
33280;BME280;20403;43.114;12.434;2023-03-13T09:20:54;99503.22;;;18.85;69.88
33280;BME280;20403;43.114;12.434;2023-03-13T09:23:21;99504.78;;;18.76;67.03
33280;BME280;20403;43.114;12.434;2023-03-13T09:25:48;99497.94;;;18.75;68.31
33280;BME280;20403;43.114;12.434;2023-03-13T09:28:14;99490.81;;;18.91;74.10
33280;BME280;20403;43.114;12.434;2023-03-13T09:30:39;99494.75;;;19.03;70.25
33280;BME280;20403;43.114;12.434;2023-03-13T09:33:05;99493.69;;;19.04;71.01
33280;BME280;20403;43.114;12.434;2023-03-13T09:35:30;99492.31;;;19.33;73.59
33280;BME280;20403;43.114;12.434;2023-03-13T09:37:56;99492.84;;;19.29;68.10
33280;BME280;20403;43.114;12.434;2023-03-13T09:40:23;99492.03;;;19.34;71.80
33280;BME280;20403;43.114;12.434;2023-03-13T09:42:57;99486.75;;;19.29;71.20
33280;BME280;20403;43.114;12.434;2023-03-13T09:45:32;99493.00;;;19.59;73.32
33280;BME280;20403;43.114;12.434;2023-03-13T09:48:12;99490.81;;;19.81;73.05
33280;BME280;20403;43.114;12.434;2023-03-13T09:50:46;99496.03;;;19.91;70.76
33280;BME280;20403;43.114;12.434;2023-03-13T09:53:32;99494.69;;;19.99;70.40
33280;BME280;20403;43.114;12.434;2023-03-13T09:55:59;99491.09;;;20.24;68.75
33280;BME280;20403;43.114;12.434;2023-03-13T09:58:27;99490.13;;;20.05;71.26
33280;BME280;20403;43.114;12.434;2023-03-13T10:03:27;99498.22;;;20.24;71.77
33280;BME280;20403;43.114;12.434;2023-03-13T10:06:03;99493.09;;;20.72;70.89
33280;BME280;20403;43.114;12.434;2023-03-13T10:08:32;99496.00;;;20.75;67.50
33280;BME280;20403;43.114;12.434;2023-03-13T10:11:02;99494.34;;;21.09;70.32
33280;BME280;20403;43.114;12.434;2023-03-13T10:13:44;99490.41;;;21.06;66.47
33280;BME280;20403;43.114;12.434;2023-03-13T10:16:20;99478.63;;;20.88;64.44
33280;BME280;20403;43.114;12.434;2023-03-13T10:18:53;99483.56;;;21.00;78.40
33280;BME280;20403;43.114;12.434;2023-03-13T10:21:21;99479.63;;;21.46;71.59
33280;BME280;20403;43.114;12.434;2023-03-13T10:26:35;99471.34;;;21.28;67.22
33280;BME280;20403;43.114;12.434;2023-03-13T10:29:26;99473.97;;;20.80;66.81
33280;BME280;20403;43.114;12.434;2023-03-13T10:34:22;99467.88;;;21.28;65.50
33280;BME280;20403;43.114;12.434;2023-03-13T10:36:49;99463.28;;;21.14;64.64
33280;BME280;20403;43.114;12.434;2023-03-13T10:39:21;99467.44;;;20.67;65.91
33280;BME280;20403;43.114;12.434;2023-03-13T10:41:49;99454.75;;;20.64;69.14
33280;BME280;20403;43.114;12.434;2023-03-13T10:44:22;99452.78;;;20.46;67.80
33280;BME280;20403;43.114;12.434;2023-03-13T10:46:49;99446.72;;;20.98;68.92
33280;BME280;20403;43.114;12.434;2023-03-13T10:49:23;99451.41;;;21.07;67.95
33280;BME280;20403;43.114;12.434;2023-03-13T10:51:53;99449.31;;;21.04;73.55
33280;BME280;20403;43.114;12.434;2023-03-13T10:54:26;99443.63;;;20.91;67.93
33280;BME280;20403;43.114;12.434;2023-03-13T10:59:41;99440.13;;;21.20;67.13
33280;BME280;20403;43.114;12.434;2023-03-13T11:02:24;99438.34;;;21.34;66.11
33280;BME280;20403;43.114;12.434;2023-03-13T11:04:51;99429.09;;;21.32;65.96
33280;BME280;20403;43.114;12.434;2023-03-13T11:07:33;99426.44;;;20.89;66.61
33280;BME280;20403;43.114;12.434;2023-03-13T11:10:01;99429.34;;;21.11;65.70
33280;BME280;20403;43.114;12.434;2023-03-13T11:12:28;99429.41;;;20.82;65.39
33280;BME280;20403;43.114;12.434;2023-03-13T11:14:58;99418.31;;;20.80;68.06
33280;BME280;20403;43.114;12.434;2023-03-13T11:17:37;99422.91;;;21.17;66.79
33280;BME280;20403;43.114;12.434;2023-03-13T11:25:38;99422.91;;;20.69;64.35
33280;BME280;20403;43.114;12.434;2023-03-13T11:52:42;99392.13;;;20.73;60.72
33280;BME280;20403;43.114;12.434;2023-03-13T12:00:47;99377.13;;;22.20;56.67
33280;BME280;20403;43.114;12.434;2023-03-13T12:03:22;99367.47;;;21.78;55.04
33280;BME280;20403;43.114;12.434;2023-03-13T12:05:52;99366.91;;;21.62;55.21
33280;BME280;20403;43.114;12.434;2023-03-13T12:13:40;99336.63;;;21.82;57.31
33280;BME280;20403;43.114;12.434;2023-03-13T12:16:13;99320.94;;;22.13;55.61
33280;BME280;20403;43.114;12.434;2023-03-13T12:18:42;99327.53;;;22.16;54.03
33280;BME280;20403;43.114;12.434;2023-03-13T12:23:56;99327.75;;;22.19;53.47
33280;BME280;20403;43.114;12.434;2023-03-13T12:26:36;99308.94;;;22.49;53.88
33280;BME280;20403;43.114;12.434;2023-03-13T12:29:26;99322.78;;;22.45;52.66
33280;BME280;20403;43.114;12.434;2023-03-13T12:34:59;99321.03;;;21.43;54.40
33280;BME280;20403;43.114;12.434;2023-03-13T12:39:58;99300.44;;;21.86;51.44
33280;BME280;20403;43.114;12.434;2023-03-13T12:45:07;99313.06;;;22.08;50.37
33280;BME280;20403;43.114;12.434;2023-03-13T12:47:48;99295.56;;;22.07;50.96
33280;BME280;20403;43.114;12.434;2023-03-13T13:01:14;99274.16;;;22.59;47.72
33280;BME280;20403;43.114;12.434;2023-03-13T13:06:56;99275.66;;;22.23;50.15
33280;BME280;20403;43.114;12.434;2023-03-13T13:12:29;99265.41;;;22.31;50.21
33280;BME280;20403;43.114;12.434;2023-03-13T13:19:54;99274.72;;;22.14;50.10
33280;BME280;20403;43.114;12.434;2023-03-13T13:32:44;99268.66;;;21.29;53.36
33280;BME280;20403;43.114;12.434;2023-03-13T13:35:29;99265.31;;;21.43;53.24
33280;BME280;20403;43.114;12.434;2023-03-13T13:41:01;99254.44;;;21.39;52.92
33280;BME280;20403;43.114;12.434;2023-03-13T13:43:42;99256.41;;;21.99;55.16
33280;BME280;20403;43.114;12.434;2023-03-13T13:46:29;99250.47;;;22.49;54.82
33280;BME280;20403;43.114;12.434;2023-03-13T13:51:30;99244.34;;;22.34;50.49
33280;BME280;20403;43.114;12.434;2023-03-13T13:56:38;99255.75;;;21.60;50.38
33280;BME280;20403;43.114;12.434;2023-03-13T14:01:47;99238.91;;;21.51;54.21
33280;BME280;20403;43.114;12.434;2023-03-13T14:04:30;99235.66;;;21.54;53.62
33280;BME280;20403;43.114;12.434;2023-03-13T14:07:00;99237.50;;;21.40;54.11
33280;BME280;20403;43.114;12.434;2023-03-13T14:12:28;99231.59;;;20.67;58.14
33280;BME280;20403;43.114;12.434;2023-03-13T14:15:24;99221.81;;;20.87;56.60
33280;BME280;20403;43.114;12.434;2023-03-13T14:17:58;99225.84;;;20.60;54.91
33280;BME280;20403;43.114;12.434;2023-03-13T14:23:02;99230.19;;;20.51;56.54
33280;BME280;20403;43.114;12.434;2023-03-13T14:28:18;99212.47;;;20.27;58.15
33280;BME280;20403;43.114;12.434;2023-03-13T14:30:44;99208.31;;;20.40;59.41
33280;BME280;20403;43.114;12.434;2023-03-13T14:33:10;99208.03;;;20.42;56.88
33280;BME280;20403;43.114;12.434;2023-03-13T14:35:35;99206.38;;;20.27;55.54
33280;BME280;20403;43.114;12.434;2023-03-13T14:38:02;99211.09;;;20.30;55.23
33280;BME280;20403;43.114;12.434;2023-03-13T14:40:29;99207.97;;;20.47;53.78
33280;BME280;20403;43.114;12.434;2023-03-13T14:42:59;99214.44;;;20.41;53.04
33280;BME280;20403;43.114;12.434;2023-03-13T14:45:31;99203.88;;;20.35;53.13
33280;BME280;20403;43.114;12.434;2023-03-13T14:48:20;99214.59;;;20.25;52.59
33280;BME280;20403;43.114;12.434;2023-03-13T14:50:47;99209.06;;;20.22;51.15
33280;BME280;20403;43.114;12.434;2023-03-13T14:53:21;99198.44;;;20.27;51.34
33280;BME280;20403;43.114;12.434;2023-03-13T14:55:47;99190.88;;;20.15;52.42
33280;BME280;20403;43.114;12.434;2023-03-13T15:00:46;99193.56;;;20.10;51.40